sensor_id;sensor_type;location;lat;lon;timestamp;P1;durP1;ratioP1;P2;durP2;ratioP2
23670;SDS011;12012;51.998;7.614;2023-12-20T00:02:13;15.38;;;5.50;;
23670;SDS011;12012;51.998;7.614;2023-12-20T00:04:39;12.55;;;4.80;;
23670;SDS011;12012;51.998;7.614;2023-12-20T00:07:04;9.80;;;5.18;;
23670;SDS011;12012;51.998;7.614;2023-12-20T00:09:30;13.00;;;5.57;;
23670;SDS011;12012;51.998;7.614;2023-12-20T00:11:55;15.18;;;5.88;;
23670;SDS011;12012;51.998;7.614;2023-12-20T00:14:21;17.27;;;6.15;;
23670;SDS011;12012;51.998;7.614;2023-12-20T00:16:47;12.63;;;6.30;;
23670;SDS011;12012;51.998;7.614;2023-12-20T00:19:12;16.77;;;5.72;;
23670;SDS011;12012;51.998;7.614;2023-12-20T00:21:38;14.35;;;6.38;;
23670;SDS011;12012;51.998;7.614;2023-12-20T00:24:04;11.85;;;6.82;;
23670;SDS011;12012;51.998;7.614;2023-12-20T00:26:30;17.35;;;7.45;;
23670;SDS011;12012;51.998;7.614;2023-12-20T00:28:56;21.65;;;7.15;;
23670;SDS011;12012;51.998;7.614;2023-12-20T00:31:21;19.40;;;7.60;;
23670;SDS011;12012;51.998;7.614;2023-12-20T00:33:47;16.50;;;6.95;;
23670;SDS011;12012;51.998;7.614;2023-12-20T00:36:12;16.05;;;7.93;;
23670;SDS011;12012;51.998;7.614;2023-12-20T00:38:38;17.83;;;7.72;;
23670;SDS011;12012;51.998;7.614;2023-12-20T00:41:03;17.00;;;6.85;;
23670;SDS011;12012;51.998;7.614;2023-12-20T00:43:29;16.60;;;7.53;;
23670;SDS011;12012;51.998;7.614;2023-12-20T00:45:54;14.93;;;6.93;;
23670;SDS011;12012;51.998;7.614;2023-12-20T00:48:20;24.33;;;7.55;;
23670;SDS011;12012;51.998;7.614;2023-12-20T00:50:46;20.80;;;6.85;;
23670;SDS011;12012;51.998;7.614;2023-12-20T00:53:14;14.75;;;6.00;;
23670;SDS011;12012;51.998;7.614;2023-12-20T00:55:40;14.18;;;5.57;;
23670;SDS011;12012;51.998;7.614;2023-12-20T00:58:05;23.10;;;7.35;;
23670;SDS011;12012;51.998;7.614;2023-12-20T01:00:31;15.38;;;5.97;;
23670;SDS011;12012;51.998;7.614;2023-12-20T01:02:56;18.45;;;5.50;;
23670;SDS011;12012;51.998;7.614;2023-12-20T01:05:23;18.48;;;6.05;;
23670;SDS011;12012;51.998;7.614;2023-12-20T01:07:48;15.80;;;5.70;;
23670;SDS011;12012;51.998;7.614;2023-12-20T01:10:14;15.98;;;6.03;;
23670;SDS011;12012;51.998;7.614;2023-12-20T01:12:40;20.95;;;5.60;;
23670;SDS011;12012;51.998;7.614;2023-12-20T01:15:05;18.73;;;7.18;;
23670;SDS011;12012;51.998;7.614;2023-12-20T01:17:31;15.98;;;6.13;;
23670;SDS011;12012;51.998;7.614;2023-12-20T01:19:57;18.00;;;6.90;;
23670;SDS011;12012;51.998;7.614;2023-12-20T01:22:23;19.00;;;5.70;;
23670;SDS011;12012;51.998;7.614;2023-12-20T01:24:48;22.00;;;6.32;;
23670;SDS011;12012;51.998;7.614;2023-12-20T01:27:14;25.92;;;6.95;;
23670;SDS011;12012;51.998;7.614;2023-12-20T01:29:40;20.45;;;6.45;;
23670;SDS011;12012;51.998;7.614;2023-12-20T01:32:05;17.50;;;6.97;;
23670;SDS011;12012;51.998;7.614;2023-12-20T01:34:31;22.48;;;7.22;;
23670;SDS011;12012;51.998;7.614;2023-12-20T01:36:57;21.45;;;7.82;;
23670;SDS011;12012;51.998;7.614;2023-12-20T01:39:22;24.58;;;8.45;;
23670;SDS011;12012;51.998;7.614;2023-12-20T01:41:48;26.63;;;8.20;;
23670;SDS011;12012;51.998;7.614;2023-12-20T01:44:14;24.75;;;7.97;;
23670;SDS011;12012;51.998;7.614;2023-12-20T01:46:39;23.40;;;8.00;;
23670;SDS011;12012;51.998;7.614;2023-12-20T01:49:05;20.25;;;7.55;;
23670;SDS011;12012;51.998;7.614;2023-12-20T01:51:31;23.48;;;7.40;;
23670;SDS011;12012;51.998;7.614;2023-12-20T01:53:58;20.58;;;7.82;;
23670;SDS011;12012;51.998;7.614;2023-12-20T01:56:25;20.15;;;7.97;;
23670;SDS011;12012;51.998;7.614;2023-12-20T01:58:53;27.02;;;7.93;;
23670;SDS011;12012;51.998;7.614;2023-12-20T02:01:19;25.77;;;9.07;;
23670;SDS011;12012;51.998;7.614;2023-12-20T02:03:45;23.40;;;9.38;;
23670;SDS011;12012;51.998;7.614;2023-12-20T02:06:11;23.52;;;9.98;;
23670;SDS011;12012;51.998;7.614;2023-12-20T02:08:37;25.63;;;10.13;;
23670;SDS011;12012;51.998;7.614;2023-12-20T02:11:02;30.05;;;11.68;;
23670;SDS011;12012;51.998;7.614;2023-12-20T02:13:28;27.27;;;11.00;;
23670;SDS011;12012;51.998;7.614;2023-12-20T02:15:55;22.90;;;9.88;;
23670;SDS011;12012;51.998;7.614;2023-12-20T02:18:21;30.35;;;9.88;;
23670;SDS011;12012;51.998;7.614;2023-12-20T02:20:47;20.52;;;9.85;;
23670;SDS011;12012;51.998;7.614;2023-12-20T02:23:13;27.65;;;10.18;;
23670;SDS011;12012;51.998;7.614;2023-12-20T02:25:38;25.92;;;9.60;;
23670;SDS011;12012;51.998;7.614;2023-12-20T02:28:04;25.98;;;9.35;;
23670;SDS011;12012;51.998;7.614;2023-12-20T02:30:31;23.10;;;8.60;;
23670;SDS011;12012;51.998;7.614;2023-12-20T02:32:57;25.83;;;8.07;;
23670;SDS011;12012;51.998;7.614;2023-12-20T02:35:24;18.63;;;7.78;;
23670;SDS011;12012;51.998;7.614;2023-12-20T02:37:50;22.23;;;8.15;;
23670;SDS011;12012;51.998;7.614;2023-12-20T02:40:16;22.58;;;8.32;;
23670;SDS011;12012;51.998;7.614;2023-12-20T02:42:41;22.73;;;8.52;;
23670;SDS011;12012;51.998;7.614;2023-12-20T02:45:07;23.23;;;8.13;;
23670;SDS011;12012;51.998;7.614;2023-12-20T02:47:33;25.95;;;8.23;;
23670;SDS011;12012;51.998;7.614;2023-12-20T02:49:58;26.17;;;8.45;;
23670;SDS011;12012;51.998;7.614;2023-12-20T02:52:24;26.92;;;8.25;;
23670;SDS011;12012;51.998;7.614;2023-12-20T02:54:50;23.85;;;7.80;;
23670;SDS011;12012;51.998;7.614;2023-12-20T02:57:15;25.35;;;7.95;;
23670;SDS011;12012;51.998;7.614;2023-12-20T02:59:41;21.95;;;6.82;;
23670;SDS011;12012;51.998;7.614;2023-12-20T03:02:07;21.00;;;7.05;;
23670;SDS011;12012;51.998;7.614;2023-12-20T03:04:32;24.10;;;6.97;;
23670;SDS011;12012;51.998;7.614;2023-12-20T03:06:58;25.95;;;7.25;;
23670;SDS011;12012;51.998;7.614;2023-12-20T03:09:23;24.55;;;7.40;;
23670;SDS011;12012;51.998;7.614;2023-12-20T03:11:49;22.35;;;7.10;;
23670;SDS011;12012;51.998;7.614;2023-12-20T03:14:15;26.45;;;7.13;;
23670;SDS011;12012;51.998;7.614;2023-12-20T03:16:40;21.50;;;6.38;;
23670;SDS011;12012;51.998;7.614;2023-12-20T03:19:06;22.80;;;6.28;;
23670;SDS011;12012;51.998;7.614;2023-12-20T03:21:31;21.10;;;6.35;;
23670;SDS011;12012;51.998;7.614;2023-12-20T03:23:57;19.85;;;5.93;;
23670;SDS011;12012;51.998;7.614;2023-12-20T03:26:22;27.48;;;6.47;;
23670;SDS011;12012;51.998;7.614;2023-12-20T03:28:48;23.30;;;6.15;;
23670;SDS011;12012;51.998;7.614;2023-12-20T03:31:14;21.45;;;5.88;;
23670;SDS011;12012;51.998;7.614;2023-12-20T03:33:39;24.45;;;6.43;;
23670;SDS011;12012;51.998;7.614;2023-12-20T03:36:05;21.17;;;5.80;;
23670;SDS011;12012;51.998;7.614;2023-12-20T03:38:31;27.58;;;6.20;;
23670;SDS011;12012;51.998;7.614;2023-12-20T03:40:56;28.33;;;5.93;;
23670;SDS011;12012;51.998;7.614;2023-12-20T03:43:22;24.52;;;6.70;;
23670;SDS011;12012;51.998;7.614;2023-12-20T03:45:47;21.48;;;6.72;;
23670;SDS011;12012;51.998;7.614;2023-12-20T03:48:13;20.50;;;5.95;;
23670;SDS011;12012;51.998;7.614;2023-12-20T03:50:38;27.25;;;6.57;;
23670;SDS011;12012;51.998;7.614;2023-12-20T03:53:04;23.17;;;6.57;;
23670;SDS011;12012;51.998;7.614;2023-12-20T03:55:30;26.63;;;6.68;;
23670;SDS011;12012;51.998;7.614;2023-12-20T03:57:55;32.47;;;7.72;;
23670;SDS011;12012;51.998;7.614;2023-12-20T04:00:21;34.33;;;7.25;;
23670;SDS011;12012;51.998;7.614;2023-12-20T04:02:46;22.55;;;6.90;;
23670;SDS011;12012;51.998;7.614;2023-12-20T04:05:12;24.65;;;6.47;;
23670;SDS011;12012;51.998;7.614;2023-12-20T04:07:38;24.98;;;7.55;;
23670;SDS011;12012;51.998;7.614;2023-12-20T04:10:04;31.20;;;7.28;;
23670;SDS011;12012;51.998;7.614;2023-12-20T04:12:30;28.70;;;6.97;;
23670;SDS011;12012;51.998;7.614;2023-12-20T04:14:57;24.17;;;7.00;;
23670;SDS011;12012;51.998;7.614;2023-12-20T04:17:23;23.48;;;6.70;;
23670;SDS011;12012;51.998;7.614;2023-12-20T04:19:49;32.05;;;6.90;;
23670;SDS011;12012;51.998;7.614;2023-12-20T04:22:15;24.15;;;6.43;;
23670;SDS011;12012;51.998;7.614;2023-12-20T04:24:40;26.65;;;6.75;;
23670;SDS011;12012;51.998;7.614;2023-12-20T04:27:09;21.98;;;6.45;;
23670;SDS011;12012;51.998;7.614;2023-12-20T04:29:34;30.52;;;7.53;;
23670;SDS011;12012;51.998;7.614;2023-12-20T04:32:00;34.83;;;7.88;;
23670;SDS011;12012;51.998;7.614;2023-12-20T04:34:26;26.67;;;7.47;;
23670;SDS011;12012;51.998;7.614;2023-12-20T04:36:54;26.92;;;6.97;;
23670;SDS011;12012;51.998;7.614;2023-12-20T04:39:22;28.83;;;7.32;;
23670;SDS011;12012;51.998;7.614;2023-12-20T04:41:48;22.13;;;6.85;;
23670;SDS011;12012;51.998;7.614;2023-12-20T04:44:15;31.60;;;6.63;;
23670;SDS011;12012;51.998;7.614;2023-12-20T04:46:40;23.50;;;6.70;;
23670;SDS011;12012;51.998;7.614;2023-12-20T04:49:07;27.45;;;7.47;;
23670;SDS011;12012;51.998;7.614;2023-12-20T04:51:33;24.95;;;7.45;;
23670;SDS011;12012;51.998;7.614;2023-12-20T04:53:59;24.55;;;6.75;;
23670;SDS011;12012;51.998;7.614;2023-12-20T04:56:25;27.23;;;7.47;;
23670;SDS011;12012;51.998;7.614;2023-12-20T04:58:51;27.83;;;7.10;;
23670;SDS011;12012;51.998;7.614;2023-12-20T05:01:16;31.63;;;8.25;;
23670;SDS011;12012;51.998;7.614;2023-12-20T05:03:42;29.15;;;7.90;;
23670;SDS011;12012;51.998;7.614;2023-12-20T05:06:09;25.10;;;7.30;;
23670;SDS011;12012;51.998;7.614;2023-12-20T05:08:35;31.05;;;8.20;;
23670;SDS011;12012;51.998;7.614;2023-12-20T05:11:00;26.02;;;9.38;;
23670;SDS011;12012;51.998;7.614;2023-12-20T05:13:26;36.00;;;9.30;;
23670;SDS011;12012;51.998;7.614;2023-12-20T05:15:52;29.02;;;7.80;;
23670;SDS011;12012;51.998;7.614;2023-12-20T05:18:18;31.30;;;9.80;;
23670;SDS011;12012;51.998;7.614;2023-12-20T05:20:43;34.75;;;9.07;;
23670;SDS011;12012;51.998;7.614;2023-12-20T05:23:09;27.88;;;8.77;;
23670;SDS011;12012;51.998;7.614;2023-12-20T05:25:36;31.15;;;8.82;;
23670;SDS011;12012;51.998;7.614;2023-12-20T05:28:02;35.35;;;9.70;;
23670;SDS011;12012;51.998;7.614;2023-12-20T05:30:27;29.63;;;8.65;;
23670;SDS011;12012;51.998;7.614;2023-12-20T05:32:53;31.63;;;8.27;;
23670;SDS011;12012;51.998;7.614;2023-12-20T05:35:19;28.25;;;8.40;;
23670;SDS011;12012;51.998;7.614;2023-12-20T05:37:44;26.65;;;8.75;;
23670;SDS011;12012;51.998;7.614;2023-12-20T05:40:10;27.15;;;8.65;;
23670;SDS011;12012;51.998;7.614;2023-12-20T05:42:36;27.98;;;8.52;;
23670;SDS011;12012;51.998;7.614;2023-12-20T05:45:02;30.88;;;8.65;;
23670;SDS011;12012;51.998;7.614;2023-12-20T05:47:29;34.80;;;8.85;;
23670;SDS011;12012;51.998;7.614;2023-12-20T05:49:54;35.75;;;9.02;;
23670;SDS011;12012;51.998;7.614;2023-12-20T05:52:20;23.30;;;8.35;;
23670;SDS011;12012;51.998;7.614;2023-12-20T05:54:45;24.70;;;8.02;;
23670;SDS011;12012;51.998;7.614;2023-12-20T05:57:11;30.50;;;8.40;;
23670;SDS011;12012;51.998;7.614;2023-12-20T05:59:37;41.70;;;9.43;;
23670;SDS011;12012;51.998;7.614;2023-12-20T06:02:03;33.33;;;8.13;;
23670;SDS011;12012;51.998;7.614;2023-12-20T06:04:29;35.15;;;7.97;;
23670;SDS011;12012;51.998;7.614;2023-12-20T06:06:55;25.35;;;7.75;;
23670;SDS011;12012;51.998;7.614;2023-12-20T06:09:21;34.95;;;8.52;;
23670;SDS011;12012;51.998;7.614;2023-12-20T06:11:46;39.80;;;8.75;;
23670;SDS011;12012;51.998;7.614;2023-12-20T06:14:12;29.17;;;7.88;;
23670;SDS011;12012;51.998;7.614;2023-12-20T06:16:37;28.30;;;7.53;;
23670;SDS011;12012;51.998;7.614;2023-12-20T06:19:03;35.25;;;7.90;;
23670;SDS011;12012;51.998;7.614;2023-12-20T06:21:28;31.60;;;7.25;;
23670;SDS011;12012;51.998;7.614;2023-12-20T06:23:54;30.65;;;7.30;;
23670;SDS011;12012;51.998;7.614;2023-12-20T06:26:20;24.13;;;6.50;;
23670;SDS011;12012;51.998;7.614;2023-12-20T06:28:45;26.33;;;7.03;;
23670;SDS011;12012;51.998;7.614;2023-12-20T06:31:11;29.20;;;7.30;;
23670;SDS011;12012;51.998;7.614;2023-12-20T06:33:37;24.75;;;7.07;;
23670;SDS011;12012;51.998;7.614;2023-12-20T06:36:05;25.90;;;6.82;;
23670;SDS011;12012;51.998;7.614;2023-12-20T06:38:31;23.80;;;5.95;;
23670;SDS011;12012;51.998;7.614;2023-12-20T06:40:57;33.85;;;7.07;;
23670;SDS011;12012;51.998;7.614;2023-12-20T06:43:23;28.45;;;6.97;;
23670;SDS011;12012;51.998;7.614;2023-12-20T06:45:49;28.88;;;6.93;;
23670;SDS011;12012;51.998;7.614;2023-12-20T06:48:15;32.30;;;6.50;;
23670;SDS011;12012;51.998;7.614;2023-12-20T06:50:41;23.58;;;6.05;;
23670;SDS011;12012;51.998;7.614;2023-12-20T06:53:07;31.67;;;6.85;;
23670;SDS011;12012;51.998;7.614;2023-12-20T06:55:36;23.27;;;6.25;;
23670;SDS011;12012;51.998;7.614;2023-12-20T06:58:03;33.25;;;6.53;;
23670;SDS011;12012;51.998;7.614;2023-12-20T07:00:29;28.77;;;6.20;;
23670;SDS011;12012;51.998;7.614;2023-12-20T07:02:55;30.50;;;6.57;;
23670;SDS011;12012;51.998;7.614;2023-12-20T07:05:21;29.30;;;7.07;;
23670;SDS011;12012;51.998;7.614;2023-12-20T07:07:47;27.27;;;5.75;;
23670;SDS011;12012;51.998;7.614;2023-12-20T07:10:13;24.02;;;6.38;;
23670;SDS011;12012;51.998;7.614;2023-12-20T07:12:39;27.55;;;5.38;;
23670;SDS011;12012;51.998;7.614;2023-12-20T07:15:04;25.25;;;5.68;;
23670;SDS011;12012;51.998;7.614;2023-12-20T07:17:33;26.52;;;5.85;;
23670;SDS011;12012;51.998;7.614;2023-12-20T07:19:59;19.35;;;5.50;;
23670;SDS011;12012;51.998;7.614;2023-12-20T07:22:29;25.70;;;6.13;;
23670;SDS011;12012;51.998;7.614;2023-12-20T07:24:58;28.23;;;5.60;;
23670;SDS011;12012;51.998;7.614;2023-12-20T07:27:25;31.08;;;6.05;;
23670;SDS011;12012;51.998;7.614;2023-12-20T07:29:51;24.55;;;5.75;;
23670;SDS011;12012;51.998;7.614;2023-12-20T07:32:17;20.63;;;5.60;;
23670;SDS011;12012;51.998;7.614;2023-12-20T07:34:43;31.25;;;6.15;;
23670;SDS011;12012;51.998;7.614;2023-12-20T07:37:09;22.20;;;5.97;;
23670;SDS011;12012;51.998;7.614;2023-12-20T07:39:37;23.58;;;5.82;;
23670;SDS011;12012;51.998;7.614;2023-12-20T07:42:03;28.88;;;6.30;;
23670;SDS011;12012;51.998;7.614;2023-12-20T07:44:28;23.35;;;5.82;;
23670;SDS011;12012;51.998;7.614;2023-12-20T07:46:54;20.30;;;4.97;;
23670;SDS011;12012;51.998;7.614;2023-12-20T07:49:25;17.13;;;5.75;;
23670;SDS011;12012;51.998;7.614;2023-12-20T07:51:51;27.40;;;6.95;;
23670;SDS011;12012;51.998;7.614;2023-12-20T07:54:17;20.17;;;5.63;;
23670;SDS011;12012;51.998;7.614;2023-12-20T07:56:43;28.63;;;6.47;;
23670;SDS011;12012;51.998;7.614;2023-12-20T07:59:08;23.10;;;5.50;;
23670;SDS011;12012;51.998;7.614;2023-12-20T08:01:34;25.73;;;5.93;;
23670;SDS011;12012;51.998;7.614;2023-12-20T08:04:00;28.10;;;6.53;;
23670;SDS011;12012;51.998;7.614;2023-12-20T08:06:25;28.77;;;6.97;;
23670;SDS011;12012;51.998;7.614;2023-12-20T08:08:51;22.98;;;6.22;;
23670;SDS011;12012;51.998;7.614;2023-12-20T08:11:16;24.40;;;6.70;;
23670;SDS011;12012;51.998;7.614;2023-12-20T08:13:42;26.20;;;7.10;;
23670;SDS011;12012;51.998;7.614;2023-12-20T08:16:08;30.10;;;7.28;;
23670;SDS011;12012;51.998;7.614;2023-12-20T08:18:34;28.83;;;7.85;;
23670;SDS011;12012;51.998;7.614;2023-12-20T08:20:59;32.70;;;7.88;;
23670;SDS011;12012;51.998;7.614;2023-12-20T08:23:26;22.27;;;7.22;;
23670;SDS011;12012;51.998;7.614;2023-12-20T08:25:52;24.13;;;7.65;;
23670;SDS011;12012;51.998;7.614;2023-12-20T08:28:17;26.67;;;7.65;;
23670;SDS011;12012;51.998;7.614;2023-12-20T08:30:43;25.08;;;7.00;;
23670;SDS011;12012;51.998;7.614;2023-12-20T08:33:09;33.15;;;8.23;;
23670;SDS011;12012;51.998;7.614;2023-12-20T08:35:37;28.85;;;8.20;;
23670;SDS011;12012;51.998;7.614;2023-12-20T08:38:04;34.00;;;7.97;;
23670;SDS011;12012;51.998;7.614;2023-12-20T08:40:29;30.40;;;8.00;;
23670;SDS011;12012;51.998;7.614;2023-12-20T08:42:55;29.00;;;7.80;;
23670;SDS011;12012;51.998;7.614;2023-12-20T08:45:21;26.27;;;8.35;;
23670;SDS011;12012;51.998;7.614;2023-12-20T08:47:46;37.25;;;8.77;;
23670;SDS011;12012;51.998;7.614;2023-12-20T08:50:12;31.60;;;8.23;;
23670;SDS011;12012;51.998;7.614;2023-12-20T08:52:38;24.60;;;7.68;;
23670;SDS011;12012;51.998;7.614;2023-12-20T08:55:04;30.20;;;8.48;;
23670;SDS011;12012;51.998;7.614;2023-12-20T08:57:30;27.35;;;7.88;;
23670;SDS011;12012;51.998;7.614;2023-12-20T08:59:57;30.25;;;8.23;;
23670;SDS011;12012;51.998;7.614;2023-12-20T09:02:22;24.15;;;7.28;;
23670;SDS011;12012;51.998;7.614;2023-12-20T09:04:48;25.05;;;7.28;;
23670;SDS011;12012;51.998;7.614;2023-12-20T09:07:23;30.77;;;8.75;;
23670;SDS011;12012;51.998;7.614;2023-12-20T09:09:50;30.35;;;8.48;;
23670;SDS011;12012;51.998;7.614;2023-12-20T09:12:19;26.50;;;7.25;;
23670;SDS011;12012;51.998;7.614;2023-12-20T09:14:46;27.77;;;8.45;;
23670;SDS011;12012;51.998;7.614;2023-12-20T09:17:12;24.17;;;7.05;;
23670;SDS011;12012;51.998;7.614;2023-12-20T09:19:38;25.50;;;7.13;;
23670;SDS011;12012;51.998;7.614;2023-12-20T09:22:04;28.02;;;8.00;;
23670;SDS011;12012;51.998;7.614;2023-12-20T09:24:30;23.60;;;7.32;;
23670;SDS011;12012;51.998;7.614;2023-12-20T09:26:55;28.17;;;6.95;;
23670;SDS011;12012;51.998;7.614;2023-12-20T09:29:21;26.08;;;7.25;;
23670;SDS011;12012;51.998;7.614;2023-12-20T09:31:47;27.13;;;7.32;;
23670;SDS011;12012;51.998;7.614;2023-12-20T09:34:14;27.92;;;7.50;;
23670;SDS011;12012;51.998;7.614;2023-12-20T09:36:40;27.67;;;7.28;;
23670;SDS011;12012;51.998;7.614;2023-12-20T09:39:11;29.77;;;6.68;;
23670;SDS011;12012;51.998;7.614;2023-12-20T09:41:38;33.72;;;6.82;;
23670;SDS011;12012;51.998;7.614;2023-12-20T09:44:11;25.05;;;7.00;;
23670;SDS011;12012;51.998;7.614;2023-12-20T09:46:39;32.88;;;6.40;;
23670;SDS011;12012;51.998;7.614;2023-12-20T09:49:09;30.63;;;7.22;;
23670;SDS011;12012;51.998;7.614;2023-12-20T09:51:35;28.13;;;5.70;;
23670;SDS011;12012;51.998;7.614;2023-12-20T09:54:03;24.88;;;6.40;;
23670;SDS011;12012;51.998;7.614;2023-12-20T09:56:29;28.80;;;6.78;;
23670;SDS011;12012;51.998;7.614;2023-12-20T09:58:55;21.60;;;6.97;;
23670;SDS011;12012;51.998;7.614;2023-12-20T10:01:21;25.83;;;6.60;;
23670;SDS011;12012;51.998;7.614;2023-12-20T10:03:47;22.10;;;6.07;;
23670;SDS011;12012;51.998;7.614;2023-12-20T10:06:12;22.00;;;6.05;;
23670;SDS011;12012;51.998;7.614;2023-12-20T10:08:38;28.38;;;6.97;;
23670;SDS011;12012;51.998;7.614;2023-12-20T10:11:04;28.52;;;6.72;;
23670;SDS011;12012;51.998;7.614;2023-12-20T10:13:30;24.65;;;5.95;;
23670;SDS011;12012;51.998;7.614;2023-12-20T10:15:56;26.85;;;6.70;;
23670;SDS011;12012;51.998;7.614;2023-12-20T10:18:22;22.33;;;5.70;;
23670;SDS011;12012;51.998;7.614;2023-12-20T10:20:48;19.80;;;5.95;;
23670;SDS011;12012;51.998;7.614;2023-12-20T10:23:13;23.55;;;10.10;;
23670;SDS011;12012;51.998;7.614;2023-12-20T10:25:40;23.40;;;6.13;;
23670;SDS011;12012;51.998;7.614;2023-12-20T10:28:13;23.60;;;5.53;;
23670;SDS011;12012;51.998;7.614;2023-12-20T10:30:44;25.60;;;6.30;;
23670;SDS011;12012;51.998;7.614;2023-12-20T10:33:09;21.83;;;5.22;;
23670;SDS011;12012;51.998;7.614;2023-12-20T10:35:35;18.02;;;4.93;;
23670;SDS011;12012;51.998;7.614;2023-12-20T10:38:05;20.67;;;4.63;;
23670;SDS011;12012;51.998;7.614;2023-12-20T10:40:34;23.02;;;5.20;;
23670;SDS011;12012;51.998;7.614;2023-12-20T10:43:03;19.42;;;4.63;;
23670;SDS011;12012;51.998;7.614;2023-12-20T10:45:30;16.17;;;4.30;;
23670;SDS011;12012;51.998;7.614;2023-12-20T10:47:55;19.67;;;5.68;;
23670;SDS011;12012;51.998;7.614;2023-12-20T10:50:24;17.48;;;4.72;;
23670;SDS011;12012;51.998;7.614;2023-12-20T10:52:51;20.83;;;5.10;;
23670;SDS011;12012;51.998;7.614;2023-12-20T10:55:21;22.48;;;5.80;;
23670;SDS011;12012;51.998;7.614;2023-12-20T10:57:47;13.20;;;4.35;;
23670;SDS011;12012;51.998;7.614;2023-12-20T11:00:17;16.75;;;5.03;;
23670;SDS011;12012;51.998;7.614;2023-12-20T11:02:45;14.68;;;4.90;;
23670;SDS011;12012;51.998;7.614;2023-12-20T11:05:30;15.50;;;4.63;;
23670;SDS011;12012;51.998;7.614;2023-12-20T11:08:17;16.42;;;4.90;;
23670;SDS011;12012;51.998;7.614;2023-12-20T11:10:55;13.30;;;3.72;;
23670;SDS011;12012;51.998;7.614;2023-12-20T11:13:34;13.98;;;3.72;;
23670;SDS011;12012;51.998;7.614;2023-12-20T11:16:05;14.90;;;3.55;;
23670;SDS011;12012;51.998;7.614;2023-12-20T11:18:32;16.08;;;4.47;;
23670;SDS011;12012;51.998;7.614;2023-12-20T11:21:01;22.92;;;4.68;;
23670;SDS011;12012;51.998;7.614;2023-12-20T11:23:30;17.20;;;4.28;;
23670;SDS011;12012;51.998;7.614;2023-12-20T11:25:59;14.70;;;3.83;;
23670;SDS011;12012;51.998;7.614;2023-12-20T11:28:24;13.93;;;4.03;;
23670;SDS011;12012;51.998;7.614;2023-12-20T11:30:52;13.65;;;4.07;;
23670;SDS011;12012;51.998;7.614;2023-12-20T11:33:25;21.08;;;3.72;;
23670;SDS011;12012;51.998;7.614;2023-12-20T11:35:55;15.48;;;3.92;;
23670;SDS011;12012;51.998;7.614;2023-12-20T11:38:21;14.90;;;3.70;;
23670;SDS011;12012;51.998;7.614;2023-12-20T11:40:48;17.90;;;4.15;;
23670;SDS011;12012;51.998;7.614;2023-12-20T11:46:03;14.18;;;4.60;;
23670;SDS011;12012;51.998;7.614;2023-12-20T11:48:37;15.02;;;4.70;;
23670;SDS011;12012;51.998;7.614;2023-12-20T11:51:13;14.10;;;3.60;;
23670;SDS011;12012;51.998;7.614;2023-12-20T11:53:39;14.77;;;3.78;;
23670;SDS011;12012;51.998;7.614;2023-12-20T11:56:06;14.68;;;3.63;;
23670;SDS011;12012;51.998;7.614;2023-12-20T11:58:32;24.00;;;4.13;;
23670;SDS011;12012;51.998;7.614;2023-12-20T12:00:58;16.58;;;4.45;;
23670;SDS011;12012;51.998;7.614;2023-12-20T12:03:24;17.23;;;4.35;;
23670;SDS011;12012;51.998;7.614;2023-12-20T12:05:50;12.73;;;3.45;;
23670;SDS011;12012;51.998;7.614;2023-12-20T12:08:16;22.77;;;4.60;;
23670;SDS011;12012;51.998;7.614;2023-12-20T12:10:42;18.05;;;4.50;;
23670;SDS011;12012;51.998;7.614;2023-12-20T12:13:09;20.25;;;4.30;;
23670;SDS011;12012;51.998;7.614;2023-12-20T12:15:35;24.50;;;4.40;;
23670;SDS011;12012;51.998;7.614;2023-12-20T12:18:01;18.65;;;4.32;;
23670;SDS011;12012;51.998;7.614;2023-12-20T12:20:27;21.10;;;4.55;;
23670;SDS011;12012;51.998;7.614;2023-12-20T12:22:57;26.40;;;5.22;;
23670;SDS011;12012;51.998;7.614;2023-12-20T12:25:23;21.55;;;4.53;;
23670;SDS011;12012;51.998;7.614;2023-12-20T12:27:50;17.58;;;3.88;;
23670;SDS011;12012;51.998;7.614;2023-12-20T12:30:16;21.05;;;4.40;;
23670;SDS011;12012;51.998;7.614;2023-12-20T12:32:43;20.88;;;4.28;;
23670;SDS011;12012;51.998;7.614;2023-12-20T12:35:09;24.85;;;4.07;;
23670;SDS011;12012;51.998;7.614;2023-12-20T12:37:36;16.77;;;4.03;;
23670;SDS011;12012;51.998;7.614;2023-12-20T12:40:05;22.35;;;4.25;;
23670;SDS011;12012;51.998;7.614;2023-12-20T12:42:38;18.73;;;4.00;;
23670;SDS011;12012;51.998;7.614;2023-12-20T12:45:04;17.13;;;4.03;;
23670;SDS011;12012;51.998;7.614;2023-12-20T12:47:31;18.77;;;4.03;;
23670;SDS011;12012;51.998;7.614;2023-12-20T12:49:56;17.17;;;3.97;;
23670;SDS011;12012;51.998;7.614;2023-12-20T12:52:22;18.67;;;3.85;;
23670;SDS011;12012;51.998;7.614;2023-12-20T12:54:48;21.88;;;4.15;;
23670;SDS011;12012;51.998;7.614;2023-12-20T12:57:14;21.77;;;4.57;;
23670;SDS011;12012;51.998;7.614;2023-12-20T12:59:41;19.60;;;4.32;;
23670;SDS011;12012;51.998;7.614;2023-12-20T13:02:07;28.27;;;4.65;;
23670;SDS011;12012;51.998;7.614;2023-12-20T13:04:33;22.52;;;4.53;;
23670;SDS011;12012;51.998;7.614;2023-12-20T13:06:58;24.90;;;5.13;;
23670;SDS011;12012;51.998;7.614;2023-12-20T13:09:24;20.38;;;5.43;;
23670;SDS011;12012;51.998;7.614;2023-12-20T13:11:50;24.45;;;4.80;;
23670;SDS011;12012;51.998;7.614;2023-12-20T13:14:16;17.38;;;4.63;;
23670;SDS011;12012;51.998;7.614;2023-12-20T13:16:41;23.83;;;5.30;;
23670;SDS011;12012;51.998;7.614;2023-12-20T13:19:07;26.52;;;4.95;;
23670;SDS011;12012;51.998;7.614;2023-12-20T13:21:34;20.40;;;5.28;;
23670;SDS011;12012;51.998;7.614;2023-12-20T13:24:00;29.00;;;5.78;;
23670;SDS011;12012;51.998;7.614;2023-12-20T13:26:26;21.67;;;4.90;;
23670;SDS011;12012;51.998;7.614;2023-12-20T13:28:52;24.65;;;4.57;;
23670;SDS011;12012;51.998;7.614;2023-12-20T13:31:17;26.75;;;5.15;;
23670;SDS011;12012;51.998;7.614;2023-12-20T13:33:44;17.85;;;4.40;;
23670;SDS011;12012;51.998;7.614;2023-12-20T13:36:10;19.10;;;3.88;;
23670;SDS011;12012;51.998;7.614;2023-12-20T13:38:35;10.00;;;2.70;;
23670;SDS011;12012;51.998;7.614;2023-12-20T13:41:01;11.45;;;3.75;;
23670;SDS011;12012;51.998;7.614;2023-12-20T13:43:27;9.93;;;2.45;;
23670;SDS011;12012;51.998;7.614;2023-12-20T13:45:52;9.27;;;1.85;;
23670;SDS011;12012;51.998;7.614;2023-12-20T13:48:18;4.75;;;1.52;;
23670;SDS011;12012;51.998;7.614;2023-12-20T13:50:44;7.93;;;2.00;;
23670;SDS011;12012;51.998;7.614;2023-12-20T13:53:09;13.02;;;5.63;;
23670;SDS011;12012;51.998;7.614;2023-12-20T13:55:35;13.07;;;4.47;;
23670;SDS011;12012;51.998;7.614;2023-12-20T13:58:00;14.18;;;4.35;;
23670;SDS011;12012;51.998;7.614;2023-12-20T14:00:26;14.48;;;3.47;;
23670;SDS011;12012;51.998;7.614;2023-12-20T14:02:51;17.35;;;3.63;;
23670;SDS011;12012;51.998;7.614;2023-12-20T14:05:17;16.25;;;3.70;;
23670;SDS011;12012;51.998;7.614;2023-12-20T14:07:45;20.50;;;4.43;;
23670;SDS011;12012;51.998;7.614;2023-12-20T14:10:11;17.05;;;5.85;;
23670;SDS011;12012;51.998;7.614;2023-12-20T14:12:38;16.50;;;4.78;;
23670;SDS011;12012;51.998;7.614;2023-12-20T14:15:04;21.02;;;5.35;;
23670;SDS011;12012;51.998;7.614;2023-12-20T14:17:36;26.45;;;5.07;;
23670;SDS011;12012;51.998;7.614;2023-12-20T14:20:02;23.23;;;5.03;;
23670;SDS011;12012;51.998;7.614;2023-12-20T14:22:29;24.45;;;5.10;;
23670;SDS011;12012;51.998;7.614;2023-12-20T14:24:55;24.77;;;4.70;;
23670;SDS011;12012;51.998;7.614;2023-12-20T14:27:22;24.95;;;5.13;;
23670;SDS011;12012;51.998;7.614;2023-12-20T14:29:49;27.95;;;5.35;;
23670;SDS011;12012;51.998;7.614;2023-12-20T14:32:15;19.15;;;4.90;;